EGHH

Bournemouth Airport

Bournemouth, United Kingdom
METAR EGHH 092150Z 27007KT 9999 FEW021 08/06 Q1023
Observed Flight Rules
Dec-9 @ 21:50 UTC (36 minutes ago) Visual Flight Rules
Wind Visibility Clouds
270° at 7 knots 10,000+ meters
  • Few at 2,100' AGL
Temperatures Readings
Current 8°C / 46°F
Dewpoint 6°C / 43°F
Humidity 87%
Altimeter 30.21" Hg
Pressure 1023 hPa
Elevation 11
METAR EGHH 092150Z 27007KT 9999 FEW021 08/06 Q1023
Observed Flight Rules
Dec-9 @ 21:50 UTC
(36 minutes ago)
VFR
Wind Visibility
270° at 7 knots 10,000+ meters
Clouds
  • Few at 2,100' AGL
Temperature Dewpoint
8°C / 46°F 6°C / 43°F
Humidity Altimeter Pressure
87% 30.21" Hg 1023 hPa